createdAt,value
2019-01-31T00:02:23.273Z,-1.03
2019-01-31T00:05:18.424Z,-0.91
2019-01-31T00:08:16.294Z,-0.82
2019-01-31T00:10:53.175Z,-0.89
2019-01-31T00:13:45.194Z,-0.72
2019-01-31T00:16:30.421Z,-0.86
2019-01-31T00:19:37.792Z,-0.90
2019-01-31T00:22:26.560Z,-0.92
2019-01-31T00:25:03.112Z,-0.98
2019-01-31T00:27:37.266Z,-1.13
2019-01-31T00:30:20.361Z,-1.14
2019-01-31T00:33:21.514Z,-1.19
2019-01-31T00:36:28.681Z,-1.21
2019-01-31T00:39:28.057Z,-1.12
2019-01-31T00:42:05.033Z,-1.23
2019-01-31T00:44:47.831Z,-1.30
2019-01-31T00:47:24.585Z,-1.26
2019-01-31T00:50:04.255Z,-1.26
2019-01-31T00:52:49.740Z,-1.36
2019-01-31T00:55:38.395Z,-1.35
2019-01-31T00:58:41.213Z,-1.37
2019-01-31T01:01:32.816Z,-1.38
2019-01-31T01:04:34.070Z,-1.42
2019-01-31T01:07:19.978Z,-1.49
2019-01-31T01:10:02.972Z,-1.47
2019-01-31T01:12:51.735Z,-1.39
2019-01-31T01:15:36.233Z,-1.48
2019-01-31T01:18:34.479Z,-1.31
2019-01-31T01:21:14.058Z,-1.38
2019-01-31T01:24:05.540Z,-1.42
2019-01-31T01:26:59.070Z,-1.45
2019-01-31T01:29:39.160Z,-1.45
2019-01-31T01:32:34.625Z,-1.42
2019-01-31T01:35:26.629Z,-1.39
2019-01-31T01:38:15.857Z,-1.40
2019-01-31T01:41:10.677Z,-1.45
2019-01-31T01:44:11.994Z,-1.38
2019-01-31T01:47:06.412Z,-1.30
2019-01-31T01:49:58.385Z,-1.33
2019-01-31T01:52:50.338Z,-1.17
2019-01-31T01:56:00.001Z,-1.28
2019-01-31T01:58:39.154Z,-1.20
2019-01-31T02:01:31.383Z,-1.29
2019-01-31T02:04:05.538Z,-1.35
2019-01-31T02:06:47.848Z,-1.40
2019-01-31T02:09:53.271Z,-1.42
2019-01-31T02:12:43.695Z,-1.32
2019-01-31T02:15:26.547Z,-1.43
2019-01-31T02:18:09.503Z,-1.39
2019-01-31T02:20:58.429Z,-1.44
2019-01-31T02:23:35.242Z,-1.59
2019-01-31T02:26:14.545Z,-1.61
2019-01-31T02:29:03.340Z,-1.42
2019-01-31T02:31:58.379Z,-1.47
2019-01-31T02:34:41.106Z,-1.33
2019-01-31T02:37:26.536Z,-1.39
2019-01-31T02:40:12.253Z,-1.44
2019-01-31T02:42:49.130Z,-1.44
2019-01-31T02:45:44.172Z,-1.60
2019-01-31T02:48:24.568Z,-1.60
2019-01-31T02:51:16.012Z,-1.60
2019-01-31T02:54:04.328Z,-1.42
2019-01-31T02:57:05.940Z,-1.56
2019-01-31T03:00:10.053Z,-1.40
2019-01-31T03:03:07.528Z,-1.46
2019-01-31T03:06:17.288Z,-1.43
2019-01-31T03:09:07.838Z,-1.51
2019-01-31T03:11:44.905Z,-1.51
2019-01-31T03:14:19.235Z,-1.68
2019-01-31T03:17:02.130Z,-1.68
2019-01-31T03:19:57.381Z,-1.65
2019-01-31T03:22:34.238Z,-1.68
2019-01-31T03:25:26.325Z,-1.79
2019-01-31T03:28:22.709Z,-1.94
2019-01-31T03:31:30.251Z,-1.97
2019-01-31T03:34:10.381Z,-2.14
2019-01-31T03:37:16.318Z,-2.04
2019-01-31T03:40:07.687Z,-2.06
2019-01-31T03:43:05.220Z,-2.10
2019-01-31T03:45:57.053Z,-2.11
2019-01-31T03:49:07.557Z,-2.08
2019-01-31T03:51:53.010Z,-1.93
2019-01-31T03:54:42.423Z,-2.01
2019-01-31T03:57:24.776Z,-2.04
2019-01-31T03:59:58.918Z,-1.97
2019-01-31T04:02:41.559Z,-1.86
2019-01-31T04:05:15.697Z,-1.76
2019-01-31T04:07:45.143Z,-1.70
2019-01-31T04:10:19.018Z,-1.80
2019-01-31T04:12:45.809Z,-1.86
2019-01-31T04:15:15.232Z,-1.91
2019-01-31T04:17:44.674Z,-1.75
2019-01-31T04:20:14.345Z,-1.76
2019-01-31T04:22:43.798Z,-1.89
2019-01-31T04:25:13.362Z,-1.84
2019-01-31T04:27:42.801Z,-1.80
2019-01-31T04:30:16.805Z,-1.87
2019-01-31T04:32:46.245Z,-1.96
2019-01-31T04:35:15.675Z,-1.92
2019-01-31T04:37:45.118Z,-1.94
2019-01-31T04:40:14.549Z,-1.93
2019-01-31T04:42:43.996Z,-1.93
2019-01-31T04:45:13.487Z,-1.75
2019-01-31T04:47:42.934Z,-1.88
2019-01-31T04:50:14.879Z,-2.00
2019-01-31T04:52:44.319Z,-1.99
2019-01-31T04:55:13.813Z,-1.92
2019-01-31T04:57:43.254Z,-1.95
2019-01-31T05:00:18.388Z,-1.96
2019-01-31T05:02:47.830Z,-1.98
2019-01-31T05:05:17.475Z,-2.03
2019-01-31T05:07:46.933Z,-2.07
2019-01-31T05:10:18.124Z,-2.09
2019-01-31T05:12:47.574Z,-2.11
2019-01-31T05:15:17.073Z,-2.20
2019-01-31T05:17:46.526Z,-2.28
2019-01-31T05:20:18.178Z,-2.38
2019-01-31T05:22:47.624Z,-2.28
2019-01-31T05:25:17.423Z,-2.18
2019-01-31T05:27:46.861Z,-2.09
2019-01-31T05:30:17.430Z,-1.97
2019-01-31T05:32:46.865Z,-1.90
2019-01-31T05:35:17.072Z,-1.89
2019-01-31T05:37:46.513Z,-1.83
2019-01-31T05:40:16.310Z,-1.73
2019-01-31T05:42:45.742Z,-1.87
2019-01-31T05:45:16.591Z,-1.93
2019-01-31T05:47:46.025Z,-2.11
2019-01-31T05:50:17.560Z,-2.21
2019-01-31T05:52:46.999Z,-2.31
2019-01-31T05:55:16.510Z,-2.36
2019-01-31T05:57:45.937Z,-2.27
2019-01-31T06:00:23.964Z,-2.33
2019-01-31T06:02:53.455Z,-2.32
2019-01-31T06:05:23.045Z,-2.31
2019-01-31T06:07:52.478Z,-2.23
2019-01-31T06:10:21.987Z,-2.20
2019-01-31T06:12:51.419Z,-2.22
2019-01-31T06:15:20.918Z,-2.10
2019-01-31T06:17:50.463Z,-2.00
2019-01-31T06:20:23.751Z,-2.07
2019-01-31T06:22:53.252Z,-2.04
2019-01-31T06:25:22.689Z,-2.07
2019-01-31T06:27:52.121Z,-2.08
2019-01-31T06:30:21.558Z,-2.17
2019-01-31T06:32:50.994Z,-2.21
2019-01-31T06:35:20.507Z,-2.04
2019-01-31T06:37:49.931Z,-1.93
2019-01-31T06:40:21.511Z,-1.84
2019-01-31T06:42:51.113Z,-1.69
2019-01-31T06:45:22.393Z,-1.67
2019-01-31T06:47:51.819Z,-1.69
2019-01-31T06:50:21.326Z,-1.66
2019-01-31T06:52:50.753Z,-1.72
2019-01-31T06:55:20.197Z,-1.77
2019-01-31T06:57:49.634Z,-1.74
2019-01-31T07:00:24.276Z,-1.73
2019-01-31T07:02:53.776Z,-1.72
2019-01-31T07:05:23.220Z,-1.68
2019-01-31T07:07:52.650Z,-1.71
2019-01-31T07:10:25.205Z,-1.62
2019-01-31T07:12:54.643Z,-1.62
2019-01-31T07:15:24.086Z,-1.60
2019-01-31T07:17:53.516Z,-1.55
2019-01-31T07:20:22.963Z,-1.40
2019-01-31T07:22:52.386Z,-1.46
2019-01-31T07:25:24.723Z,-1.42
2019-01-31T07:27:54.151Z,-1.28
2019-01-31T07:30:26.673Z,-1.28
2019-01-31T07:32:55.652Z,-1.25
2019-01-31T07:35:25.094Z,-1.06
2019-01-31T07:37:54.525Z,-1.11
2019-01-31T07:40:24.417Z,-1.15
2019-01-31T07:42:53.833Z,-0.95
2019-01-31T07:45:31.748Z,-0.91
2019-01-31T07:48:01.387Z,-0.87
2019-01-31T07:50:30.895Z,-0.90
2019-01-31T07:53:00.328Z,-0.91
2019-01-31T07:55:29.769Z,-0.88
2019-01-31T07:57:59.204Z,-0.95
2019-01-31T08:00:28.652Z,-0.85
2019-01-31T08:02:58.165Z,-0.72
2019-01-31T08:05:27.605Z,-0.58
2019-01-31T08:07:58.074Z,-0.68
2019-01-31T08:10:40.113Z,-0.57
2019-01-31T08:13:09.723Z,-0.42
2019-01-31T08:15:39.167Z,-0.47
2019-01-31T08:18:10.930Z,-0.45
2019-01-31T08:20:39.778Z,-0.41
2019-01-31T08:23:10.325Z,-0.33
2019-01-31T08:25:40.065Z,-0.30
2019-01-31T08:28:09.947Z,-0.21
2019-01-31T08:30:44.232Z,-0.28
2019-01-31T08:33:13.670Z,-0.07
2019-01-31T08:35:43.105Z,0.07
2019-01-31T08:38:12.547Z,0.00
2019-01-31T08:40:42.057Z,-0.04
2019-01-31T08:43:11.502Z,-0.09
2019-01-31T08:45:40.942Z,0.00
2019-01-31T08:48:10.458Z,0.13
2019-01-31T08:50:40.026Z,0.05
2019-01-31T08:53:09.464Z,0.03
2019-01-31T08:55:38.961Z,0.05
2019-01-31T08:58:08.401Z,0.12
2019-01-31T09:00:37.833Z,0.12
2019-01-31T09:03:07.342Z,0.12
2019-01-31T09:05:36.779Z,0.11
2019-01-31T09:08:06.212Z,0.24
2019-01-31T09:10:39.517Z,0.18
2019-01-31T09:13:11.167Z,0.18
2019-01-31T09:15:40.731Z,0.11
2019-01-31T09:18:10.237Z,0.12
2019-01-31T09:20:56.676Z,0.14
2019-01-31T09:23:48.796Z,0.11
2019-01-31T09:27:06.112Z,0.08
2019-01-31T09:29:49.333Z,0.16
2019-01-31T09:32:50.862Z,0.22
2019-01-31T09:35:36.789Z,0.24
2019-01-31T09:38:28.881Z,0.31
2019-01-31T09:41:11.866Z,0.37
2019-01-31T09:43:51.795Z,0.35
2019-01-31T09:46:31.692Z,0.40
2019-01-31T09:49:45.266Z,0.43
2019-01-31T09:52:31.241Z,0.48
2019-01-31T09:55:56.241Z,0.56
2019-01-31T09:58:36.228Z,0.57
2019-01-31T10:01:52.602Z,0.60
2019-01-31T10:04:35.407Z,0.72
2019-01-31T10:07:35.975Z,0.80
2019-01-31T10:10:38.452Z,0.95
2019-01-31T10:13:51.407Z,1.10
2019-01-31T10:16:34.098Z,1.30
2019-01-31T10:19:37.130Z,1.33
2019-01-31T10:22:32.597Z,1.46
2019-01-31T10:25:23.994Z,1.60
2019-01-31T10:28:22.311Z,1.56
2019-01-31T10:31:17.369Z,1.51
2019-01-31T10:34:05.687Z,1.57
2019-01-31T10:36:39.828Z,1.65
2019-01-31T10:39:31.911Z,1.75
2019-01-31T10:42:30.262Z,1.70
2019-01-31T10:45:39.478Z,1.77
2019-01-31T10:48:31.632Z,1.94
2019-01-31T10:51:17.357Z,2.02
2019-01-31T10:54:09.674Z,1.98
2019-01-31T10:57:07.619Z,1.95
2019-01-31T10:59:44.321Z,2.05
2019-01-31T11:02:34.806Z,2.14
2019-01-31T11:05:30.073Z,2.17
2019-01-31T11:08:20.594Z,2.25
2019-01-31T11:11:12.536Z,2.32
2019-01-31T11:14:16.371Z,2.43
2019-01-31T11:17:28.446Z,2.33
2019-01-31T11:20:23.546Z,2.34
2019-01-31T11:23:12.540Z,2.57
2019-01-31T11:26:18.579Z,2.62
2019-01-31T11:29:18.522Z,2.83
2019-01-31T11:32:07.215Z,2.86
2019-01-31T11:34:49.416Z,2.91
2019-01-31T11:37:31.827Z,2.93
2019-01-31T11:40:30.068Z,2.81
2019-01-31T11:43:13.224Z,2.71
2019-01-31T11:46:09.881Z,2.86
2019-01-31T11:49:01.914Z,2.83
2019-01-31T11:52:11.689Z,2.85
2019-01-31T11:54:57.623Z,2.85
2019-01-31T11:58:12.069Z,2.82
2019-01-31T12:00:41.512Z,2.85
2019-01-31T12:03:11.311Z,3.02
2019-01-31T12:05:40.812Z,3.13
2019-01-31T12:08:10.309Z,3.17
2019-01-31T12:10:39.820Z,3.34
2019-01-31T12:13:09.320Z,3.40
2019-01-31T12:15:38.830Z,3.63
2019-01-31T12:18:09.010Z,3.85
2019-01-31T12:20:38.501Z,3.94
2019-01-31T12:23:07.929Z,4.01
2019-01-31T12:25:37.369Z,4.04
2019-01-31T12:28:06.800Z,4.32
2019-01-31T12:30:36.249Z,4.25
2019-01-31T12:33:06.164Z,4.13
2019-01-31T12:35:35.655Z,4.13
2019-01-31T12:38:05.373Z,4.18
2019-01-31T12:40:34.797Z,4.12
2019-01-31T12:43:04.235Z,4.09
2019-01-31T12:45:33.660Z,4.14
2019-01-31T12:48:03.164Z,4.34
2019-01-31T12:50:32.596Z,4.39
2019-01-31T12:53:02.209Z,4.48
2019-01-31T12:55:31.702Z,4.72
2019-01-31T12:58:01.252Z,4.53
2019-01-31T13:00:30.911Z,4.43
2019-01-31T13:03:00.342Z,4.42
2019-01-31T13:05:29.766Z,4.42
2019-01-31T13:07:59.206Z,4.36
2019-01-31T13:10:28.635Z,4.26
2019-01-31T13:12:58.515Z,4.23
2019-01-31T13:15:29.439Z,4.29
2019-01-31T13:17:59.117Z,4.29
2019-01-31T13:20:28.547Z,4.28
2019-01-31T13:22:58.120Z,4.34
2019-01-31T13:25:28.253Z,4.31
2019-01-31T13:27:57.762Z,4.22
2019-01-31T13:30:27.504Z,4.32
2019-01-31T13:32:57.979Z,4.24
2019-01-31T13:35:27.412Z,4.24
2019-01-31T13:37:56.847Z,4.21
2019-01-31T13:40:27.384Z,4.25
2019-01-31T13:42:57.331Z,4.48
2019-01-31T13:45:32.869Z,4.52
2019-01-31T13:48:06.418Z,4.51
2019-01-31T13:50:36.015Z,4.50
2019-01-31T13:53:08.354Z,4.65
2019-01-31T13:55:37.940Z,4.84
2019-01-31T13:58:10.100Z,4.80
2019-01-31T14:00:38.871Z,4.77
2019-01-31T14:03:08.376Z,4.83
2019-01-31T14:05:37.797Z,4.76
2019-01-31T14:08:07.682Z,4.70
2019-01-31T14:10:37.549Z,4.55
2019-01-31T14:13:07.027Z,4.56
2019-01-31T14:15:36.688Z,4.61
2019-01-31T14:18:06.437Z,4.66
2019-01-31T14:20:36.746Z,4.73
2019-01-31T14:23:06.521Z,4.73
2019-01-31T14:25:37.589Z,4.78
2019-01-31T14:28:07.102Z,4.82
2019-01-31T14:30:38.270Z,4.86
2019-01-31T14:33:13.142Z,4.97
2019-01-31T14:35:42.921Z,4.81
2019-01-31T14:38:12.359Z,4.84
2019-01-31T14:40:42.034Z,4.81
2019-01-31T14:43:11.665Z,4.83
2019-01-31T14:45:41.087Z,4.76
2019-01-31T14:48:10.533Z,4.78
2019-01-31T14:50:40.088Z,4.97
2019-01-31T14:53:09.464Z,4.95
2019-01-31T14:55:38.958Z,5.12
2019-01-31T14:58:10.299Z,5.07
2019-01-31T15:00:39.724Z,5.18
2019-01-31T15:03:09.160Z,5.18
2019-01-31T15:05:38.654Z,5.18
2019-01-31T15:08:08.430Z,5.27
2019-01-31T15:10:37.864Z,5.25
2019-01-31T15:13:07.516Z,5.14
2019-01-31T15:15:36.943Z,4.99
2019-01-31T15:18:07.289Z,4.88
2019-01-31T15:20:42.716Z,4.84
2019-01-31T15:23:12.223Z,4.62
2019-01-31T15:25:41.723Z,4.55
2019-01-31T15:28:11.165Z,4.42
2019-01-31T15:30:40.666Z,4.36
2019-01-31T15:33:12.585Z,4.30
2019-01-31T15:35:42.148Z,4.28
2019-01-31T15:38:11.758Z,4.22
2019-01-31T15:40:48.602Z,4.15
2019-01-31T15:43:18.036Z,4.14
2019-01-31T15:45:47.471Z,4.15
2019-01-31T15:48:18.243Z,4.16
2019-01-31T15:50:47.686Z,4.12
2019-01-31T15:53:17.104Z,4.05
2019-01-31T15:55:46.543Z,3.99
2019-01-31T15:58:15.974Z,3.93
2019-01-31T16:00:49.195Z,3.84
2019-01-31T16:03:20.532Z,3.89
2019-01-31T16:05:50.336Z,3.88
2019-01-31T16:08:19.764Z,3.91
2019-01-31T16:10:49.320Z,3.72
2019-01-31T16:13:18.876Z,3.62
2019-01-31T16:15:48.388Z,3.57
2019-01-31T16:18:17.888Z,3.44
2019-01-31T16:20:47.394Z,3.37
2019-01-31T16:23:17.362Z,3.30
2019-01-31T16:25:47.924Z,3.22
2019-01-31T16:28:17.619Z,3.12
2019-01-31T16:30:47.399Z,3.03
2019-01-31T16:33:16.819Z,3.03
2019-01-31T16:35:46.431Z,2.96
2019-01-31T16:38:15.853Z,3.02
2019-01-31T16:40:45.380Z,2.96
2019-01-31T16:43:14.861Z,2.95
2019-01-31T16:45:46.157Z,2.93
2019-01-31T16:48:15.519Z,2.91
2019-01-31T16:50:45.027Z,2.86
2019-01-31T16:53:14.457Z,2.82
2019-01-31T16:55:43.896Z,2.80
2019-01-31T16:58:13.397Z,2.79
2019-01-31T17:00:43.873Z,2.72
2019-01-31T17:03:13.426Z,2.80
2019-01-31T17:05:43.193Z,2.76
2019-01-31T17:08:12.617Z,2.71
2019-01-31T17:10:42.057Z,2.59
2019-01-31T17:13:11.552Z,2.57
2019-01-31T17:15:40.985Z,2.42
2019-01-31T17:18:10.413Z,2.35
2019-01-31T17:20:42.364Z,2.27
2019-01-31T17:23:11.759Z,2.22
2019-01-31T17:25:41.198Z,2.11
2019-01-31T17:28:10.627Z,2.10
2019-01-31T17:30:40.066Z,2.15
2019-01-31T17:33:09.565Z,2.17
2019-01-31T17:35:39.007Z,2.06
2019-01-31T17:38:08.680Z,2.09
2019-01-31T17:40:39.260Z,2.03
2019-01-31T17:43:09.127Z,2.04
2019-01-31T17:45:38.563Z,2.03
2019-01-31T17:48:09.969Z,2.03
2019-01-31T17:50:39.404Z,2.13
2019-01-31T17:53:08.838Z,2.07
2019-01-31T17:55:38.263Z,2.05
2019-01-31T17:58:07.771Z,2.02
2019-01-31T18:00:43.071Z,2.08
2019-01-31T18:03:12.870Z,2.02
2019-01-31T18:05:42.363Z,2.02
2019-01-31T18:08:11.882Z,1.99
2019-01-31T18:10:41.374Z,1.92
2019-01-31T18:13:10.813Z,1.89
2019-01-31T18:15:42.291Z,1.94
2019-01-31T18:18:11.397Z,1.88
2019-01-31T18:20:40.820Z,1.90
2019-01-31T18:23:10.269Z,1.94
2019-01-31T18:25:39.696Z,1.83
2019-01-31T18:28:09.135Z,1.87
2019-01-31T18:30:39.496Z,1.88
2019-01-31T18:33:08.932Z,1.84
2019-01-31T18:35:38.357Z,1.81
2019-01-31T18:38:07.799Z,1.80
2019-01-31T18:40:37.598Z,1.77
2019-01-31T18:43:07.295Z,1.74
2019-01-31T18:45:37.469Z,1.77
2019-01-31T18:48:07.743Z,1.76
2019-01-31T18:50:40.852Z,1.74
2019-01-31T18:53:10.521Z,1.69
2019-01-31T18:55:40.021Z,1.72
2019-01-31T18:58:09.451Z,1.73
2019-01-31T19:00:45.445Z,1.76
2019-01-31T19:03:14.942Z,1.78
2019-01-31T19:05:44.713Z,1.86
2019-01-31T19:08:14.146Z,1.89
2019-01-31T19:10:44.018Z,1.88
2019-01-31T19:13:13.552Z,1.92
2019-01-31T19:15:42.975Z,1.93
2019-01-31T19:18:12.421Z,1.94
2019-01-31T19:20:41.985Z,1.97
2019-01-31T19:23:11.493Z,2.03
2019-01-31T19:25:40.917Z,2.00
2019-01-31T19:28:13.097Z,2.00
2019-01-31T19:30:41.907Z,2.05
2019-01-31T19:33:11.344Z,2.07
2019-01-31T19:35:40.838Z,2.06
2019-01-31T19:38:10.611Z,2.04
2019-01-31T19:40:43.047Z,2.06
2019-01-31T19:43:12.476Z,2.09
2019-01-31T19:45:48.103Z,2.11
2019-01-31T19:48:17.539Z,2.12
2019-01-31T19:50:47.039Z,2.11
2019-01-31T19:53:16.522Z,2.17
2019-01-31T19:55:45.975Z,2.17
2019-01-31T19:58:15.457Z,2.19
2019-01-31T20:00:44.888Z,2.22
2019-01-31T20:03:14.385Z,2.23
2019-01-31T20:05:43.812Z,2.26
2019-01-31T20:08:13.799Z,2.25
2019-01-31T20:10:43.480Z,2.28
2019-01-31T20:13:12.990Z,2.32
2019-01-31T20:15:43.153Z,2.32
2019-01-31T20:18:12.798Z,2.32
2019-01-31T20:20:42.873Z,2.33
2019-01-31T20:23:12.515Z,2.34
2019-01-31T20:25:42.011Z,2.38
2019-01-31T20:28:11.507Z,2.41
2019-01-31T20:30:40.942Z,2.43
2019-01-31T20:33:10.492Z,2.45
2019-01-31T20:35:39.921Z,2.40
2019-01-31T20:38:09.416Z,2.34
2019-01-31T20:40:40.493Z,2.47
2019-01-31T20:43:10.332Z,2.51
2019-01-31T20:45:39.766Z,2.58
2019-01-31T20:48:09.329Z,2.59
2019-01-31T20:50:40.174Z,2.58
2019-01-31T20:53:09.846Z,2.50
2019-01-31T20:55:39.268Z,2.57
2019-01-31T20:58:08.764Z,2.57
2019-01-31T21:00:41.517Z,2.62
2019-01-31T21:03:11.550Z,2.57
2019-01-31T21:05:41.589Z,2.57
2019-01-31T21:08:11.755Z,2.63
2019-01-31T21:10:41.193Z,2.65
2019-01-31T21:13:10.620Z,2.77
2019-01-31T21:15:40.128Z,2.80
2019-01-31T21:18:10.098Z,2.73
2019-01-31T21:20:39.669Z,2.71
2019-01-31T21:23:10.434Z,2.74
2019-01-31T21:25:39.871Z,2.70
2019-01-31T21:28:09.304Z,2.73
2019-01-31T21:30:40.443Z,2.73
2019-01-31T21:33:10.013Z,2.73
2019-01-31T21:35:39.589Z,2.72
2019-01-31T21:38:09.088Z,2.77
2019-01-31T21:40:38.595Z,2.75
2019-01-31T21:43:08.157Z,2.71
2019-01-31T21:45:37.733Z,2.67
2019-01-31T21:48:07.468Z,2.71
2019-01-31T21:50:37.497Z,2.81
2019-01-31T21:53:07.063Z,2.91
2019-01-31T21:55:36.574Z,2.94
2019-01-31T21:58:06.341Z,2.97
2019-01-31T22:00:36.657Z,2.92
2019-01-31T22:03:07.289Z,2.94
2019-01-31T22:05:39.837Z,2.88
2019-01-31T22:08:09.334Z,2.89
2019-01-31T22:10:38.764Z,2.87
2019-01-31T22:13:08.193Z,2.86
2019-01-31T22:15:37.768Z,2.83
2019-01-31T22:18:07.337Z,2.90
2019-01-31T22:20:36.840Z,2.90
2019-01-31T22:23:06.339Z,2.88
2019-01-31T22:25:35.771Z,2.87
2019-01-31T22:28:06.728Z,2.86
2019-01-31T22:30:37.607Z,2.88
2019-01-31T22:33:07.773Z,2.89
2019-01-31T22:35:37.221Z,2.88
2019-01-31T22:38:06.957Z,2.89
2019-01-31T22:40:36.395Z,2.94
2019-01-31T22:43:06.060Z,2.94
2019-01-31T22:45:35.578Z,2.95
2019-01-31T22:48:06.941Z,2.99
2019-01-31T22:50:36.380Z,2.99
2019-01-31T22:53:06.108Z,2.99
2019-01-31T22:55:35.548Z,3.02
2019-01-31T22:58:05.570Z,3.10
2019-01-31T23:01:05.516Z,3.17
2019-01-31T23:03:35.010Z,3.13
2019-01-31T23:06:05.557Z,3.07
2019-01-31T23:08:35.018Z,3.13
2019-01-31T23:11:04.790Z,3.17
2019-01-31T23:13:34.218Z,3.24
2019-01-31T23:16:03.657Z,3.21
2019-01-31T23:18:33.197Z,3.27
2019-01-31T23:21:02.602Z,3.24
2019-01-31T23:23:32.029Z,3.21
2019-01-31T23:26:01.940Z,3.21
2019-01-31T23:28:31.375Z,3.24
2019-01-31T23:31:00.808Z,3.26
2019-01-31T23:33:30.238Z,3.25
2019-01-31T23:35:59.678Z,3.29
2019-01-31T23:38:29.104Z,3.28
2019-01-31T23:40:58.562Z,3.34
2019-01-31T23:43:27.988Z,3.31
2019-01-31T23:45:57.425Z,3.35
2019-01-31T23:48:26.850Z,3.33
2019-01-31T23:50:56.353Z,3.33
2019-01-31T23:53:25.795Z,3.37
2019-01-31T23:55:55.336Z,3.33
2019-01-31T23:58:24.729Z,3.33
